createdAt,value
2019-01-31T00:01:18.943Z,8.00
2019-01-31T00:03:59.975Z,5.60
2019-01-31T00:06:40.484Z,14.10
2019-01-31T00:09:21.215Z,12.73
2019-01-31T00:12:04.150Z,12.60
2019-01-31T00:14:44.471Z,10.73
2019-01-31T00:17:25.127Z,10.53
2019-01-31T00:20:06.026Z,11.57
2019-01-31T00:22:46.467Z,15.30
2019-01-31T00:25:27.314Z,13.47
2019-01-31T00:28:08.334Z,7.53
2019-01-31T00:30:49.052Z,15.30
2019-01-31T00:33:29.718Z,16.33
2019-01-31T00:36:10.801Z,8.57
2019-01-31T00:38:56.878Z,14.53
2019-01-31T00:41:34.003Z,15.90
2019-01-31T00:44:14.678Z,15.97
2019-01-31T00:46:55.558Z,8.37
2019-01-31T00:49:36.472Z,13.83
2019-01-31T00:52:17.142Z,7.20
2019-01-31T00:54:57.926Z,12.07
2019-01-31T00:57:38.854Z,14.07
2019-01-31T01:00:19.722Z,9.70
2019-01-31T01:03:00.755Z,15.13
2019-01-31T01:05:41.783Z,13.77
2019-01-31T01:08:22.229Z,10.00
2019-01-31T01:11:02.872Z,6.57
2019-01-31T01:13:43.254Z,12.77
2019-01-31T01:16:24.015Z,13.50
2019-01-31T01:19:04.580Z,8.50
2019-01-31T01:21:45.437Z,4.37
2019-01-31T01:24:29.562Z,7.43
2019-01-31T01:27:36.766Z,14.63
2019-01-31T01:30:29.313Z,3.27
2019-01-31T01:33:36.536Z,13.87
2019-01-31T01:36:43.707Z,9.80
2019-01-31T01:39:51.256Z,8.37
2019-01-31T01:42:44.052Z,10.07
2019-01-31T01:45:51.246Z,12.07
2019-01-31T01:48:42.797Z,12.63
2019-01-31T01:51:50.447Z,10.30
2019-01-31T01:54:43.579Z,8.87
2019-01-31T01:57:37.566Z,14.43
2019-01-31T02:00:28.805Z,4.83
2019-01-31T02:03:36.323Z,14.83
2019-01-31T02:06:27.773Z,8.47
2019-01-31T02:09:29.787Z,7.40
2019-01-31T02:12:11.654Z,11.67
2019-01-31T02:15:19.115Z,10.47
2019-01-31T02:18:26.273Z,6.77
2019-01-31T02:21:33.630Z,12.23
2019-01-31T02:24:40.969Z,7.97
2019-01-31T02:27:21.802Z,11.23
2019-01-31T02:30:02.358Z,13.93
2019-01-31T02:32:43.916Z,13.90
2019-01-31T02:35:29.622Z,9.60
2019-01-31T02:38:36.844Z,14.10
2019-01-31T02:41:28.012Z,10.37
2019-01-31T02:47:48.370Z,5.43
2019-01-31T02:50:38.966Z,9.17
2019-01-31T02:53:46.276Z,10.33
2019-01-31T02:56:53.765Z,12.70
2019-01-31T03:00:00.945Z,5.60
2019-01-31T03:02:56.449Z,11.30
2019-01-31T03:06:03.630Z,13.60
2019-01-31T03:09:11.405Z,9.87
2019-01-31T03:12:18.581Z,12.10
2019-01-31T03:15:25.974Z,12.60
2019-01-31T03:18:22.319Z,14.00
2019-01-31T03:21:29.622Z,12.53
2019-01-31T03:24:36.799Z,9.17
2019-01-31T03:27:44.277Z,12.00
2019-01-31T03:30:51.724Z,9.47
2019-01-31T03:33:59.278Z,11.13
2019-01-31T03:36:39.972Z,12.87
2019-01-31T03:39:20.696Z,14.27
2019-01-31T03:42:03.541Z,10.10
2019-01-31T03:44:43.930Z,14.23
2019-01-31T03:47:24.451Z,11.50
2019-01-31T03:50:07.298Z,13.07
2019-01-31T03:52:47.886Z,14.13
2019-01-31T03:55:28.280Z,10.93
2019-01-31T03:58:09.005Z,12.10
2019-01-31T04:00:49.716Z,12.87
2019-01-31T04:03:32.560Z,12.93
2019-01-31T04:06:13.662Z,11.93
2019-01-31T04:08:54.502Z,11.77
2019-01-31T04:11:35.086Z,12.17
2019-01-31T04:14:16.187Z,11.40
2019-01-31T04:16:56.892Z,12.40
2019-01-31T04:19:37.738Z,10.57
2019-01-31T04:22:18.699Z,11.33
2019-01-31T04:24:59.649Z,12.27
2019-01-31T04:27:40.492Z,11.37
2019-01-31T04:30:21.082Z,12.33
2019-01-31T04:33:02.322Z,12.80
2019-01-31T04:35:41.347Z,11.90
2019-01-31T04:41:22.833Z,10.50
2019-01-31T04:46:57.553Z,11.50
2019-01-31T04:49:38.544Z,11.00
2019-01-31T04:52:19.490Z,11.37
2019-01-31T04:55:00.286Z,11.87
2019-01-31T04:57:41.576Z,14.17
2019-01-31T05:00:22.153Z,12.20
2019-01-31T05:03:03.371Z,11.27
2019-01-31T05:05:44.133Z,12.67
2019-01-31T05:08:24.367Z,10.37
2019-01-31T05:11:05.189Z,10.77
2019-01-31T05:13:46.443Z,9.43
2019-01-31T05:16:27.611Z,10.50
2019-01-31T05:19:07.976Z,11.13
2019-01-31T05:21:48.918Z,11.63
2019-01-31T05:24:29.686Z,9.70
2019-01-31T05:27:10.907Z,9.60
2019-01-31T05:29:51.758Z,9.70
2019-01-31T05:32:32.689Z,10.60
2019-01-31T05:35:13.790Z,6.53
2019-01-31T05:37:54.289Z,11.23
2019-01-31T05:40:34.574Z,10.13
2019-01-31T05:43:15.145Z,10.43
2019-01-31T05:45:55.583Z,9.93
2019-01-31T05:48:36.280Z,11.40
2019-01-31T05:51:16.955Z,10.90
2019-01-31T05:53:57.283Z,8.67
2019-01-31T05:56:38.392Z,10.87
2019-01-31T05:59:18.992Z,11.00
2019-01-31T06:01:59.451Z,10.90
2019-01-31T06:04:40.349Z,8.53
2019-01-31T06:07:21.503Z,10.53
2019-01-31T06:10:02.000Z,10.43
2019-01-31T06:12:42.723Z,10.37
2019-01-31T06:15:23.222Z,10.07
2019-01-31T06:18:03.672Z,10.53
2019-01-31T06:20:44.439Z,10.63
2019-01-31T06:23:25.464Z,9.27
2019-01-31T06:26:06.052Z,10.50
2019-01-31T06:28:46.826Z,12.10
2019-01-31T06:31:27.364Z,11.50
2019-01-31T06:34:08.205Z,12.67
2019-01-31T06:36:48.606Z,10.40
2019-01-31T06:39:29.397Z,11.83
2019-01-31T06:42:13.359Z,10.87
2019-01-31T06:44:52.499Z,11.10
2019-01-31T06:47:40.871Z,12.00
2019-01-31T06:50:10.524Z,12.03
2019-01-31T06:55:51.816Z,11.03
2019-01-31T06:58:41.503Z,10.57
2019-01-31T07:01:29.500Z,10.00
2019-01-31T07:07:11.820Z,11.47
2019-01-31T07:10:00.317Z,10.40
2019-01-31T07:12:49.774Z,10.27
2019-01-31T07:15:38.002Z,10.40
2019-01-31T07:18:25.948Z,11.73
2019-01-31T07:24:07.833Z,11.00
2019-01-31T07:29:49.750Z,10.90
2019-01-31T07:32:37.706Z,8.73
2019-01-31T07:35:25.663Z,11.30
2019-01-31T07:41:07.117Z,10.67
2019-01-31T07:43:55.135Z,10.23
2019-01-31T07:46:35.941Z,12.03
2019-01-31T07:49:16.182Z,10.23
2019-01-31T07:51:57.279Z,11.40
2019-01-31T07:54:38.119Z,11.97
2019-01-31T07:57:19.290Z,10.83
2019-01-31T07:59:59.915Z,11.20
2019-01-31T08:02:40.595Z,12.23
2019-01-31T08:05:21.203Z,10.10
2019-01-31T08:08:01.812Z,11.40
2019-01-31T08:10:42.982Z,9.50
2019-01-31T08:13:23.771Z,11.87
2019-01-31T08:16:04.878Z,11.13
2019-01-31T08:18:45.701Z,9.47
2019-01-31T08:21:26.125Z,11.77
2019-01-31T08:24:09.444Z,10.93
2019-01-31T08:26:49.019Z,10.67
2019-01-31T08:29:29.676Z,11.20
2019-01-31T08:32:10.515Z,9.77
2019-01-31T08:34:51.159Z,9.83
2019-01-31T08:37:31.618Z,12.40
2019-01-31T08:40:12.750Z,10.53
2019-01-31T08:42:53.408Z,12.87
2019-01-31T08:45:34.084Z,10.70
2019-01-31T08:48:14.940Z,9.63
2019-01-31T08:50:56.110Z,10.07
2019-01-31T08:53:36.732Z,10.67
2019-01-31T08:56:17.556Z,9.90
2019-01-31T08:58:58.127Z,10.53
2019-01-31T09:01:38.958Z,9.03
2019-01-31T09:04:19.507Z,9.50
2019-01-31T09:07:00.101Z,11.30
2019-01-31T09:09:40.526Z,10.07
2019-01-31T09:12:21.091Z,10.20
2019-01-31T09:15:01.803Z,10.20
2019-01-31T09:20:55.438Z,8.90
2019-01-31T09:23:35.775Z,11.10
2019-01-31T09:26:17.089Z,10.47
2019-01-31T09:28:57.930Z,11.83
2019-01-31T09:31:39.195Z,10.03
2019-01-31T09:34:20.630Z,11.27
2019-01-31T09:37:01.363Z,9.13
2019-01-31T09:39:42.147Z,9.60
2019-01-31T09:42:26.593Z,9.50
2019-01-31T09:45:05.748Z,9.63
2019-01-31T09:47:46.574Z,10.00
2019-01-31T09:50:28.216Z,9.37
2019-01-31T09:53:09.308Z,10.60
2019-01-31T09:55:49.901Z,9.70
2019-01-31T09:58:30.588Z,9.73
2019-01-31T10:01:11.508Z,8.37
2019-01-31T10:03:52.107Z,7.97
2019-01-31T10:06:32.726Z,9.67
2019-01-31T10:09:15.985Z,9.50
2019-01-31T10:11:56.060Z,10.33
2019-01-31T10:14:39.194Z,9.73
2019-01-31T10:17:19.191Z,8.97
2019-01-31T10:20:00.003Z,9.87
2019-01-31T10:22:40.346Z,9.43
2019-01-31T10:25:21.705Z,8.93
2019-01-31T10:28:03.022Z,10.30
2019-01-31T10:30:43.723Z,9.40
2019-01-31T10:33:23.946Z,8.00
2019-01-31T10:36:05.829Z,7.95
2019-01-31T10:38:54.700Z,9.43
2019-01-31T10:42:02.756Z,8.25
2019-01-31T10:44:55.221Z,9.63
2019-01-31T10:48:02.527Z,8.13
2019-01-31T10:50:58.570Z,8.38
2019-01-31T10:53:49.934Z,8.97
2019-01-31T10:56:44.353Z,8.75
2019-01-31T10:59:51.899Z,7.80
2019-01-31T11:02:59.162Z,8.67
2019-01-31T11:06:06.680Z,7.08
2019-01-31T11:09:13.869Z,7.70
2019-01-31T11:12:21.109Z,8.00
2019-01-31T11:15:23.101Z,7.07
2019-01-31T11:18:30.392Z,6.50
2019-01-31T11:21:37.627Z,6.07
2019-01-31T11:24:44.891Z,6.13
2019-01-31T11:27:52.137Z,5.30
2019-01-31T11:31:01.036Z,7.00
2019-01-31T11:33:51.467Z,5.83
2019-01-31T11:39:39.794Z,5.97
2019-01-31T11:42:47.009Z,6.13
2019-01-31T11:45:54.236Z,4.43
2019-01-31T11:49:01.743Z,5.80
2019-01-31T11:52:08.968Z,4.87
2019-01-31T11:55:16.313Z,6.77
2019-01-31T12:00:58.175Z,4.90
2019-01-31T12:03:27.098Z,4.63
2019-01-31T12:06:15.134Z,5.10
2019-01-31T12:09:03.123Z,6.03
2019-01-31T12:11:51.447Z,5.03
2019-01-31T12:14:39.795Z,5.13
2019-01-31T12:17:27.864Z,4.67
2019-01-31T12:20:16.334Z,4.43
2019-01-31T12:23:04.429Z,4.90
2019-01-31T12:25:52.461Z,3.73
2019-01-31T12:31:55.166Z,4.67
2019-01-31T12:34:43.428Z,2.47
2019-01-31T12:37:31.499Z,4.07
2019-01-31T12:40:20.574Z,3.90
2019-01-31T12:43:15.963Z,4.43
2019-01-31T12:46:04.769Z,3.87
2019-01-31T12:48:52.861Z,4.67
2019-01-31T12:51:42.487Z,3.80
2019-01-31T12:54:30.630Z,3.23
2019-01-31T12:57:18.604Z,4.47
2019-01-31T13:03:37.239Z,5.40
2019-01-31T13:06:25.176Z,5.33
2019-01-31T13:09:13.275Z,4.60
2019-01-31T13:12:01.230Z,6.00
2019-01-31T13:14:49.248Z,5.50
2019-01-31T13:17:37.514Z,4.33
2019-01-31T13:20:25.478Z,4.40
2019-01-31T13:23:34.074Z,4.63
2019-01-31T13:26:22.182Z,3.87
2019-01-31T13:29:10.450Z,1.93
2019-01-31T13:34:54.333Z,6.43
2019-01-31T13:40:35.395Z,6.80
2019-01-31T13:43:16.525Z,6.00
2019-01-31T13:45:57.172Z,6.00
2019-01-31T13:48:37.590Z,6.03
2019-01-31T13:51:18.123Z,5.33
2019-01-31T13:53:59.438Z,7.20
2019-01-31T13:56:45.735Z,6.50
2019-01-31T13:59:22.667Z,6.93
2019-01-31T14:02:03.734Z,6.20
2019-01-31T14:04:44.079Z,6.30
2019-01-31T14:07:27.491Z,6.23
2019-01-31T14:10:07.607Z,4.97
2019-01-31T14:12:48.251Z,6.13
2019-01-31T14:15:33.467Z,6.27
2019-01-31T14:18:11.908Z,6.57
2019-01-31T14:20:53.275Z,6.53
2019-01-31T14:23:33.960Z,6.97
2019-01-31T14:26:15.367Z,5.80
2019-01-31T14:28:56.121Z,6.53
2019-01-31T14:31:37.030Z,6.13
2019-01-31T14:34:17.689Z,6.10
2019-01-31T14:37:00.311Z,4.70
2019-01-31T14:39:41.193Z,6.33
2019-01-31T14:42:21.807Z,5.73
2019-01-31T14:45:02.155Z,6.80
2019-01-31T14:47:43.723Z,6.07
2019-01-31T14:50:24.884Z,5.73
2019-01-31T14:53:05.233Z,5.30
2019-01-31T14:55:45.879Z,5.47
2019-01-31T14:58:26.830Z,5.90
2019-01-31T15:01:08.016Z,5.67
2019-01-31T15:03:51.405Z,6.23
2019-01-31T15:06:31.451Z,4.97
2019-01-31T15:09:12.255Z,3.17
2019-01-31T15:11:53.578Z,5.63
2019-01-31T15:14:34.063Z,5.50
2019-01-31T15:17:14.828Z,6.07
2019-01-31T15:19:55.779Z,5.50
2019-01-31T15:22:36.456Z,6.03
2019-01-31T15:25:17.062Z,5.67
2019-01-31T15:27:57.656Z,7.07
2019-01-31T15:30:39.412Z,5.80
2019-01-31T15:33:20.541Z,6.63
2019-01-31T15:36:01.269Z,6.90
2019-01-31T15:38:42.135Z,6.27
2019-01-31T15:41:11.444Z,6.73
2019-01-31T15:43:59.393Z,6.70
2019-01-31T15:49:41.105Z,7.50
2019-01-31T15:52:29.067Z,7.50
2019-01-31T15:55:17.342Z,6.83
2019-01-31T16:04:13.101Z,5.73
2019-01-31T16:07:01.379Z,6.80
2019-01-31T16:09:49.381Z,6.50
2019-01-31T16:15:31.249Z,6.63
2019-01-31T16:18:19.339Z,7.13
2019-01-31T16:21:19.220Z,6.90
2019-01-31T16:23:57.220Z,5.53
2019-01-31T16:26:45.200Z,6.37
2019-01-31T16:29:33.239Z,6.40
2019-01-31T16:32:21.244Z,5.80
2019-01-31T16:35:29.468Z,7.07
2019-01-31T16:38:17.453Z,6.73
2019-01-31T16:41:05.524Z,6.37
2019-01-31T16:43:46.056Z,5.83
2019-01-31T16:46:26.792Z,7.13
2019-01-31T16:49:07.150Z,6.63
2019-01-31T16:51:47.842Z,7.27
2019-01-31T16:54:28.426Z,6.33
2019-01-31T16:57:09.081Z,6.63
2019-01-31T16:59:49.907Z,7.23
2019-01-31T17:02:31.295Z,6.27
2019-01-31T17:05:11.960Z,5.87
2019-01-31T17:07:53.063Z,7.10
2019-01-31T17:10:33.484Z,6.60
2019-01-31T17:13:13.943Z,5.80
2019-01-31T17:15:54.678Z,7.80
2019-01-31T17:18:35.499Z,7.57
2019-01-31T17:21:16.295Z,8.07
2019-01-31T17:23:57.608Z,6.83
2019-01-31T17:26:38.479Z,7.07
2019-01-31T17:29:19.141Z,9.43
2019-01-31T17:31:59.890Z,7.53
2019-01-31T17:34:40.519Z,7.73
2019-01-31T17:37:21.684Z,8.60
2019-01-31T17:40:02.254Z,8.20
2019-01-31T17:42:43.478Z,8.70
2019-01-31T17:45:30.394Z,8.33
2019-01-31T17:48:06.823Z,8.50
2019-01-31T17:50:47.787Z,8.00
2019-01-31T17:53:28.450Z,9.20
2019-01-31T17:56:09.101Z,9.60
2019-01-31T17:58:49.576Z,9.60
2019-01-31T18:01:30.183Z,8.47
2019-01-31T18:04:11.053Z,9.43
2019-01-31T18:06:51.800Z,7.43
2019-01-31T18:09:32.187Z,8.57
2019-01-31T18:12:12.940Z,8.40
2019-01-31T18:14:53.779Z,8.53
2019-01-31T18:17:34.532Z,7.37
2019-01-31T18:20:15.257Z,8.20
2019-01-31T18:22:55.998Z,8.90
2019-01-31T18:25:36.643Z,8.27
2019-01-31T18:28:17.951Z,8.57
2019-01-31T18:30:58.889Z,9.73
2019-01-31T18:33:39.472Z,9.20
2019-01-31T18:36:20.177Z,8.93
2019-01-31T18:39:00.955Z,10.60
2019-01-31T18:41:41.678Z,10.40
2019-01-31T18:44:22.575Z,9.53
2019-01-31T18:47:07.002Z,10.50
2019-01-31T18:49:47.655Z,11.33
2019-01-31T18:52:28.707Z,9.23
2019-01-31T18:55:09.598Z,10.97
2019-01-31T18:57:50.372Z,12.83
2019-01-31T19:00:31.148Z,13.53
2019-01-31T19:03:12.299Z,10.70
2019-01-31T19:05:53.132Z,7.97
2019-01-31T19:08:34.336Z,6.13
2019-01-31T19:11:15.258Z,12.37
2019-01-31T19:13:55.838Z,12.00
2019-01-31T19:16:36.474Z,12.63
2019-01-31T19:19:16.777Z,8.10
2019-01-31T19:21:57.542Z,12.20
2019-01-31T19:24:38.245Z,11.17
2019-01-31T19:27:19.579Z,11.87
2019-01-31T19:30:00.415Z,13.27
2019-01-31T19:32:41.792Z,12.43
2019-01-31T19:35:22.227Z,13.23
2019-01-31T19:38:02.995Z,13.90
2019-01-31T19:40:43.605Z,11.93
2019-01-31T19:43:24.189Z,13.23
2019-01-31T19:46:15.721Z,10.13
2019-01-31T19:48:47.658Z,11.70
2019-01-31T19:51:28.392Z,12.77
2019-01-31T19:54:08.787Z,15.07
2019-01-31T19:56:49.263Z,13.73
2019-01-31T19:59:29.970Z,11.93
2019-01-31T20:02:10.735Z,12.93
2019-01-31T20:04:51.411Z,10.53
2019-01-31T20:07:31.751Z,13.93
2019-01-31T20:10:12.287Z,7.67
2019-01-31T20:12:52.971Z,15.07
2019-01-31T20:15:34.080Z,17.10
2019-01-31T20:18:14.951Z,15.40
2019-01-31T20:20:55.983Z,14.00
2019-01-31T20:23:36.575Z,11.90
2019-01-31T20:26:17.324Z,13.10
2019-01-31T20:28:57.875Z,16.73
2019-01-31T20:31:39.244Z,14.20
2019-01-31T20:34:20.406Z,11.20
2019-01-31T20:37:01.076Z,16.60
2019-01-31T20:39:41.952Z,16.43
2019-01-31T20:42:22.944Z,15.07
2019-01-31T20:45:03.470Z,5.97
2019-01-31T20:47:44.126Z,13.03
2019-01-31T20:50:24.918Z,16.17
2019-01-31T20:53:05.835Z,17.43
2019-01-31T20:55:46.226Z,16.20
2019-01-31T20:58:27.290Z,15.50
2019-01-31T21:01:08.650Z,10.03
2019-01-31T21:03:49.851Z,11.90
2019-01-31T21:06:40.337Z,14.63
2019-01-31T21:09:13.825Z,17.00
2019-01-31T21:11:54.676Z,16.90
2019-01-31T21:14:35.688Z,15.30
2019-01-31T21:17:16.853Z,14.77
2019-01-31T21:19:57.403Z,17.40
2019-01-31T21:22:38.051Z,16.27
2019-01-31T21:25:18.542Z,14.30
2019-01-31T21:27:59.007Z,15.70
2019-01-31T21:30:39.582Z,12.83
2019-01-31T21:33:20.259Z,16.47
2019-01-31T21:36:01.081Z,18.70
2019-01-31T21:38:41.759Z,14.27
2019-01-31T21:41:22.455Z,18.90
2019-01-31T21:44:03.791Z,16.83
2019-01-31T21:46:44.823Z,13.73
2019-01-31T21:49:25.943Z,16.87
2019-01-31T21:52:06.536Z,17.03
2019-01-31T21:54:47.305Z,16.60
2019-01-31T21:57:28.448Z,17.00
2019-01-31T22:00:08.803Z,18.17
2019-01-31T22:02:49.603Z,18.07
2019-01-31T22:05:30.533Z,16.80
2019-01-31T22:08:11.585Z,19.30
2019-01-31T22:10:52.979Z,19.53
2019-01-31T22:13:33.490Z,15.97
2019-01-31T22:16:13.989Z,14.50
2019-01-31T22:18:54.720Z,7.87
2019-01-31T22:21:35.399Z,16.93
2019-01-31T22:24:16.014Z,10.93
2019-01-31T22:26:56.940Z,14.97
2019-01-31T22:29:37.527Z,17.90
2019-01-31T22:32:18.064Z,17.83
2019-01-31T22:34:58.510Z,16.57
2019-01-31T22:37:38.911Z,19.83
2019-01-31T22:40:19.823Z,20.43
2019-01-31T22:43:00.804Z,17.07
2019-01-31T22:45:41.401Z,20.00
2019-01-31T22:48:22.236Z,19.17
2019-01-31T22:51:03.451Z,20.67
2019-01-31T22:53:44.161Z,22.37
2019-01-31T22:56:24.696Z,22.17
2019-01-31T22:59:05.350Z,18.87
2019-01-31T23:01:58.694Z,15.90
2019-01-31T23:04:39.219Z,17.63
2019-01-31T23:07:20.203Z,17.90
2019-01-31T23:09:48.914Z,10.77
2019-01-31T23:15:30.611Z,18.60
2019-01-31T23:18:18.951Z,19.40
2019-01-31T23:21:06.970Z,13.53
2019-01-31T23:23:55.043Z,20.87
2019-01-31T23:26:43.063Z,19.70
2019-01-31T23:32:24.329Z,17.30
2019-01-31T23:35:12.309Z,17.33
2019-01-31T23:38:00.246Z,16.43
2019-01-31T23:40:41.464Z,15.93
2019-01-31T23:43:22.957Z,21.87
2019-01-31T23:46:03.743Z,22.53
2019-01-31T23:48:44.582Z,17.87
2019-01-31T23:51:25.160Z,21.20
2019-01-31T23:54:05.710Z,12.13
2019-01-31T23:56:46.591Z,22.87
2019-01-31T23:59:27.533Z,23.00
